Time;durP1;ratioP1;P1;durP2;ratioP2;P2;SDS_P1;SDS_P2;PMS_P1;PMS_P2;Temp;Humidity;BMP_temperature;BMP_pressure;BME280_temperature;BME280_humidity;BME280_pressure;Samples;Min_cycle;Max_cycle;Signal;HPM_P1;HPM_P2
2022/10/15 00:00:29;;;;;;;;;4.33;4.33;;;;;18.03;74.52;100422.00;2113707;27;45891;-65
2022/10/15 00:01:29;;;;;;;;;7.33;5.33;;;;;18.03;74.31;100415.75;2116339;27;45564;-65
2022/10/15 00:02:29;;;;;;;;;5.67;4.00;;;;;18.04;74.22;100421.06;2121840;27;47265;-65
2022/10/15 00:03:30;;;;;;;;;6.00;6.00;;;;;18.05;74.42;100420.09;2118771;27;46035;-65
2022/10/15 00:04:30;;;;;;;;;7.00;5.00;;;;;18.07;74.57;100422.69;2121420;27;45741;-64
2022/10/15 00:05:31;;;;;;;;;7.33;7.33;;;;;18.07;74.72;100428.94;2119868;27;46798;-65
2022/10/15 00:06:31;;;;;;;;;6.00;5.67;;;;;18.08;74.50;100421.75;2120679;27;46646;-64
2022/10/15 00:07:32;;;;;;;;;4.00;4.00;;;;;18.07;74.31;100420.88;2117532;27;46392;-65
2022/10/15 00:08:32;;;;;;;;;6.33;5.33;;;;;18.08;74.63;100411.88;2121853;27;46093;-64
2022/10/15 00:09:33;;;;;;;;;7.67;6.67;;;;;18.08;74.43;100416.38;2119775;27;45904;-64
2022/10/15 00:10:34;;;;;;;;;7.00;7.00;;;;;18.10;74.44;100420.69;2122006;27;46134;-65
2022/10/15 00:11:34;;;;;;;;;7.50;6.75;;;;;18.09;74.69;100421.66;2119887;27;47401;-65
2022/10/15 00:12:35;;;;;;;;;6.00;6.00;;;;;18.10;74.58;100417.16;2121015;27;46696;-66
2022/10/15 00:13:36;;;;;;;;;7.67;7.00;;;;;18.11;74.23;100421.56;2116937;27;47208;-64
2022/10/15 00:14:36;;;;;;;;;6.75;6.75;;;;;18.10;74.63;100422.53;2118164;27;46842;-64
2022/10/15 00:15:37;;;;;;;;;7.33;7.33;;;;;18.10;74.43;100415.31;2115992;27;46571;-64
2022/10/15 00:16:37;;;;;;;;;7.00;7.00;;;;;18.10;74.61;100418.00;2106329;27;46352;-64
2022/10/15 00:17:38;;;;;;;;;4.33;4.33;;;;;18.10;74.50;100418.00;2108526;27;46586;-65
2022/10/15 00:18:40;;;;;;;;;6.00;4.33;;;;;18.11;74.86;100411.69;2121312;27;46939;-65
2022/10/15 00:19:40;;;;;;;;;6.75;6.75;;;;;18.13;74.75;100414.28;2118259;27;46060;-66
2022/10/15 00:20:41;;;;;;;;;8.67;8.00;;;;;18.14;74.53;100413.31;2094620;28;46212;-64
2022/10/15 00:21:41;;;;;;;;;7.00;6.00;;;;;18.14;74.74;100413.31;2093624;28;44967;-66
2022/10/15 00:22:41;;;;;;;;;5.33;5.33;;;;;18.16;74.65;100408.72;2121521;27;46711;-65
2022/10/15 00:23:42;;;;;;;;;8.33;8.33;;;;;18.16;74.69;100409.59;2118188;27;46448;-65
2022/10/15 00:24:42;;;;;;;;;9.33;9.33;;;;;18.17;74.61;100405.13;2121737;27;46172;-66
2022/10/15 00:25:43;;;;;;;;;6.67;6.67;;;;;18.17;74.51;100413.16;2110955;27;47290;-64
2022/10/15 00:26:43;;;;;;;;;6.00;6.00;;;;;18.19;74.64;100409.44;2106842;27;46556;-65
2022/10/15 00:27:43;;;;;;;;;6.67;6.67;;;;;18.20;74.80;100410.28;2108189;27;46885;-66
2022/10/15 00:28:44;;;;;;;;;8.33;8.33;;;;;18.18;74.89;100407.72;2104519;27;46396;-64
2022/10/15 00:29:44;;;;;;;;;9.33;9.33;;;;;18.19;74.94;100405.88;2118193;27;46204;-64
2022/10/15 00:30:45;;;;;;;;;11.00;10.00;;;;;18.19;74.92;100406.75;2119054;27;46930;-65
2022/10/15 00:31:45;;;;;;;;;11.00;9.00;;;;;18.19;74.77;100405.88;2118628;27;46552;-64
2022/10/15 00:32:45;;;;;;;;;9.00;9.00;;;;;18.20;74.83;100403.09;2120514;27;47280;-64
2022/10/15 00:33:48;;;;;;;;;9.00;9.00;;;;;18.22;74.79;100408.38;2119568;27;46435;-64
2022/10/15 00:34:48;;;;;;;;;8.50;7.75;;;;;18.21;74.97;100394.09;2094245;28;46589;-65
2022/10/15 00:35:57;;;;;;;;;8.00;8.00;;;;;18.23;75.00;100402.06;2101079;27;46435;-65
2022/10/15 00:36:57;;;;;;;;;8.00;8.00;;;;;18.23;75.33;100400.22;2112813;27;45678;-64
2022/10/15 00:37:58;;;;;;;;;10.67;9.67;;;;;18.24;75.08;100395.72;2121094;27;46669;-64
2022/10/15 00:38:58;;;;;;;;;10.00;10.00;;;;;18.23;74.94;100391.31;2118085;27;46221;-64
2022/10/15 00:39:59;;;;;;;;;8.67;8.67;;;;;18.23;75.07;100399.38;2121076;27;45667;-66
2022/10/15 00:41:00;;;;;;;;;8.00;8.00;;;;;18.24;75.12;100391.22;2116456;27;45831;-65
2022/10/15 00:42:01;;;;;;;;;9.00;9.00;;;;;18.24;75.08;100395.72;2120279;27;46541;-64
2022/10/15 00:43:01;;;;;;;;;12.00;11.33;;;;;18.24;74.96;100391.22;2115129;27;46380;-65
2022/10/15 00:44:24;;;;;;;;;10.33;10.33;;;;;18.23;75.10;100392.16;2121368;27;46844;-64
2022/10/15 00:45:24;;;;;;;;;9.50;9.50;;;;;18.24;75.08;100385.84;2115767;27;45611;-66
2022/10/15 00:46:40;;;;;;;;;14.00;12.75;;;;;18.24;75.34;100398.41;2121406;27;46537;-64
2022/10/15 00:47:44;;;;;;;;;15.40;12.80;;;;;18.24;75.35;100391.22;2117235;27;46239;-65
2022/10/15 00:48:48;;;;;;;;;11.00;9.80;;;;;18.24;75.13;100393.91;2121432;27;46814;-65
2022/10/15 00:50:12;;;;;;;;;7.75;7.00;;;;;18.25;75.28;100397.44;2118824;27;46625;-65
2022/10/15 00:51:14;;;;;;;;;8.75;8.75;;;;;18.24;75.29;100393.03;2082796;28;46424;-64
2022/10/15 00:52:24;;;;;;;;;9.00;8.50;;;;;18.23;75.45;100389.50;2086178;28;45976;-65
2022/10/15 00:53:24;;;;;;;;;12.00;10.00;;;;;18.25;75.58;100397.44;2084795;28;46470;-64
2022/10/15 00:54:30;;;;;;;;;8.00;8.00;;;;;18.25;75.62;100389.41;2085725;28;46630;-65
2022/10/15 00:55:34;;;;;;;;;10.25;9.50;;;;;18.26;75.41;100388.44;2084927;28;46627;-65
2022/10/15 00:56:36;;;;;;;;;10.50;10.50;;;;;18.26;75.25;100396.50;2086895;28;46128;-65
2022/10/15 00:57:38;;;;;;;;;8.50;8.50;;;;;18.27;75.47;100394.66;2084306;28;46396;-65
2022/10/15 00:58:39;;;;;;;;;7.75;7.75;;;;;18.25;75.25;100397.44;2086524;28;46407;-64
2022/10/15 00:59:49;;;;;;;;;10.33;10.33;;;;;18.23;75.45;100388.63;2084683;28;46611;-64
2022/10/15 01:00:49;;;;;;;;;10.75;9.25;;;;;18.22;75.45;100394.94;2082887;28;47022;-65
2022/10/15 01:01:50;;;;;;;;;10.33;9.00;;;;;18.20;75.55;100387.00;2085819;28;46274;-64
2022/10/15 01:02:50;;;;;;;;;9.00;9.00;;;;;18.21;75.54;100379.78;2082538;28;47127;-65
2022/10/15 01:03:54;;;;;;;;;9.33;9.00;;;;;18.21;75.29;100385.16;2085645;28;46530;-64
2022/10/15 01:04:54;;;;;;;;;8.50;8.50;;;;;18.19;75.17;100385.25;2085034;28;46851;-64
2022/10/15 01:05:55;;;;;;;;;8.00;8.00;;;;;18.20;75.50;100380.75;2086357;28;46358;-64
2022/10/15 01:06:55;;;;;;;;;8.33;8.33;;;;;18.19;75.32;100371.84;2085369;28;46360;-64
2022/10/15 01:07:56;;;;;;;;;8.33;8.33;;;;;18.20;75.56;100373.56;2085733;28;46018;-65
2022/10/15 01:08:56;;;;;;;;;9.33;7.00;;;;;18.21;75.58;100377.09;2085475;28;47225;-64
2022/10/15 01:09:57;;;;;;;;;7.00;6.33;;;;;18.19;75.40;100371.84;2085029;28;46385;-62
2022/10/15 01:11:29;;;;;;;;;8.00;7.00;;;;;18.18;75.78;100372.78;2084565;28;45103;-64
2022/10/15 01:12:52;;;;;;;;;10.00;9.00;;;;;18.19;75.75;100371.84;2084671;28;46473;-64
2022/10/15 01:14:06;;;;;;;;;10.00;8.75;;;;;18.21;76.14;100369.06;2086272;28;51177;-64
2022/10/15 01:15:12;;;;;;;;;8.00;7.75;;;;;18.21;75.64;100361.84;2084619;28;46236;-65
2022/10/15 01:16:23;;;;;;;;;7.75;7.75;;;;;18.21;75.87;100361.00;2085848;28;46901;-63
2022/10/15 01:17:39;;;;;;;;;8.00;8.00;;;;;18.21;75.78;100369.06;2085437;28;46754;-63
2022/10/15 01:18:46;;;;;;;;;8.25;7.75;;;;;18.21;75.93;100356.47;2079482;28;47024;-65
2022/10/15 01:20:28;;;;;;;;;9.25;9.25;;;;;18.19;75.72;100350.34;2085559;28;46121;-63
2022/10/15 01:22:04;;;;;;;;;5.25;5.25;;;;;18.18;75.67;100345.94;2083967;28;45795;-64
2022/10/15 01:23:26;;;;;;;;;8.75;8.75;;;;;18.18;75.73;100350.44;2057177;28;46998;-65
2022/10/15 01:24:56;;;;;;;;;6.25;6.25;;;;;18.16;75.85;100347.81;2063456;28;46653;-67
2022/10/15 01:26:18;;;;;;;;;7.75;6.50;;;;;18.15;75.77;100346.09;2064134;28;46446;-65
2022/10/15 01:27:33;;;;;;;;;6.75;6.75;;;;;18.15;75.96;100347.91;2063635;28;46541;-63
2022/10/15 01:29:08;;;;;;;;;6.75;6.00;;;;;18.14;75.91;100346.19;2062343;28;46400;-63
2022/10/15 01:30:15;;;;;;;;;6.00;6.00;;;;;18.13;76.04;100342.63;2065912;28;46089;-64
2022/10/15 01:31:49;;;;;;;;;6.00;6.00;;;;;18.13;75.88;100333.72;2062364;28;46790;-64
2022/10/15 01:32:56;;;;;;;;;5.75;5.75;;;;;18.12;76.08;100337.34;2062698;28;46328;-63
2022/10/15 01:33:59;;;;;;;;;5.00;5.00;;;;;18.12;76.04;100331.97;2059460;28;46444;-65
2022/10/15 01:35:16;;;;;;;;;5.50;5.50;;;;;18.12;75.89;100332.84;2061454;28;46439;-65
2022/10/15 01:36:26;;;;;;;;;5.00;4.00;;;;;18.11;76.09;100324.88;2061762;28;46674;-63
2022/10/15 01:37:53;;;;;;;;;5.00;5.00;;;;;18.11;75.99;100332.94;2061631;28;46942;-65
2022/10/15 01:39:03;;;;;;;;;4.50;4.50;;;;;18.09;75.68;100330.34;2046091;28;46088;-64
2022/10/15 01:40:06;;;;;;;;;5.75;5.75;;;;;18.08;76.08;100330.44;2046077;28;46917;-65
2022/10/15 01:41:18;;;;;;;;;4.00;4.00;;;;;18.08;76.07;100327.75;2044972;28;46447;-63
2022/10/15 01:42:31;;;;;;;;;4.00;3.00;;;;;18.05;76.03;100315.38;2044312;28;46638;-64
2022/10/15 01:43:43;;;;;;;;;4.00;4.00;;;;;18.06;76.14;100314.44;2044377;28;45989;-66
2022/10/15 01:44:50;;;;;;;;;5.00;5.00;;;;;18.07;76.11;100309.91;2044449;28;46705;-65
2022/10/15 01:45:59;;;;;;;;;4.75;4.75;;;;;18.06;75.97;100310.88;2045297;28;46549;-65
2022/10/15 01:47:03;;;;;;;;;4.50;4.50;;;;;18.06;75.99;100308.19;2045939;28;46897;-64
2022/10/15 01:48:09;;;;;;;;;4.50;4.50;;;;;18.06;76.05;100308.19;2045014;28;46965;-64
2022/10/15 01:49:14;;;;;;;;;4.75;4.75;;;;;18.05;76.22;100306.47;2045358;28;46323;-65
2022/10/15 01:50:17;;;;;;;;;4.75;4.75;;;;;18.04;75.93;100305.59;2046200;28;46531;-65
2022/10/15 01:51:19;;;;;;;;;4.00;4.00;;;;;18.04;76.50;100305.59;2044597;28;46818;-64
2022/10/15 01:52:25;;;;;;;;;5.50;4.25;;;;;18.03;76.38;100300.28;2045808;28;46595;-64
2022/10/15 01:53:28;;;;;;;;;7.50;5.75;;;;;18.01;76.23;100300.38;2045257;28;47872;-65
2022/10/15 01:54:29;;;;;;;;;4.75;4.75;;;;;18.01;76.19;100302.22;2046348;28;46622;-64
2022/10/15 01:55:32;;;;;;;;;4.75;4.75;;;;;18.00;76.49;100306.72;2045262;28;46671;-65
2022/10/15 01:56:35;;;;;;;;;6.00;5.75;;;;;18.00;76.62;100303.16;2046591;28;46527;-63
2022/10/15 01:57:38;;;;;;;;;2.50;2.00;;;;;18.00;76.60;100301.34;2045476;28;46753;-65
2022/10/15 01:58:42;;;;;;;;;4.00;4.00;;;;;17.99;76.26;100298.75;2048430;28;46925;-64
2022/10/15 01:59:43;;;;;;;;;6.25;6.25;;;;;17.99;76.73;100299.63;2054192;28;46784;-63
2022/10/15 02:00:43;;;;;;;;;5.00;5.00;;;;;18.00;76.46;100298.66;2066872;28;46796;-63
2022/10/15 02:01:44;;;;;;;;;4.00;4.00;;;;;18.00;76.28;100298.66;2067976;28;45919;-64
2022/10/15 02:02:44;;;;;;;;;6.00;4.00;;;;;18.00;76.03;100293.28;2063244;28;45448;-66
2022/10/15 02:03:47;;;;;;;;;5.33;5.33;;;;;18.00;76.82;100290.59;2060964;28;44987;-65
2022/10/15 02:04:47;;;;;;;;;5.75;5.00;;;;;18.00;76.34;100292.44;2071091;28;46918;-64
2022/10/15 02:05:55;;;;;;;;;4.67;4.67;;;;;18.00;76.60;100287.91;2066108;28;46560;-63
2022/10/15 02:07:05;;;;;;;;;4.75;4.50;;;;;17.99;76.86;100280.81;2070275;28;46858;-64
2022/10/15 02:08:12;;;;;;;;;6.75;6.75;;;;;18.00;76.43;100284.38;2070097;28;46489;-64
2022/10/15 02:09:31;;;;;;;;;5.75;5.75;;;;;18.00;76.87;100276.31;2060499;28;46748;-64
2022/10/15 02:10:57;;;;;;;;;6.00;6.00;;;;;17.98;76.73;100273.72;2062595;28;46015;-64
2022/10/15 02:12:28;;;;;;;;;6.00;4.75;;;;;17.97;76.77;100276.50;2070121;28;47247;-66
2022/10/15 02:13:46;;;;;;;;;4.75;3.75;;;;;17.95;77.03;100276.59;2066205;28;46225;-65
2022/10/15 02:15:07;;;;;;;;;5.25;5.25;;;;;17.96;76.74;100274.78;2071199;28;45671;-64
2022/10/15 02:16:27;;;;;;;;;5.00;5.00;;;;;17.95;76.81;100268.56;2070969;27;45365;-64
2022/10/15 02:17:37;;;;;;;;;3.25;3.25;;;;;17.97;76.66;100271.13;2116889;27;47041;-64
2022/10/15 02:18:40;;;;;;;;;4.00;4.00;;;;;17.96;76.79;100262.22;2120539;27;46913;-64
2022/10/15 02:20:00;;;;;;;;;5.50;5.50;;;;;17.98;76.86;100259.44;2119915;27;46547;-64
2022/10/15 02:21:07;;;;;;;;;3.00;3.00;;;;;17.98;76.96;100249.56;2114123;27;46553;-63
2022/10/15 02:22:15;;;;;;;;;7.25;6.50;;;;;17.98;76.93;100249.56;2118869;27;46136;-64
2022/10/15 02:23:18;;;;;;;;;4.50;4.50;;;;;17.99;76.82;100261.16;2119120;27;46791;-64
2022/10/15 02:24:23;;;;;;;;;6.00;4.25;;;;;17.98;76.97;100260.31;2122383;27;46546;-64
2022/10/15 02:25:26;;;;;;;;;6.00;6.00;;;;;17.99;77.07;100258.47;2117415;27;46402;-65
2022/10/15 02:26:29;;;;;;;;;5.00;5.00;;;;;17.99;77.05;100258.47;2120978;27;45559;-65
2022/10/15 02:27:32;;;;;;;;;5.00;5.00;;;;;18.00;76.91;100254.84;2098479;28;46713;-64
2022/10/15 02:28:36;;;;;;;;;5.00;5.00;;;;;17.98;77.07;100251.38;2105163;27;45655;-63
2022/10/15 02:29:38;;;;;;;;;6.00;6.00;;;;;17.98;76.80;100244.19;2120643;27;46832;-64
2022/10/15 02:30:42;;;;;;;;;5.00;5.00;;;;;17.98;76.98;100237.97;2114865;27;46595;-64
2022/10/15 02:31:46;;;;;;;;;3.00;3.00;;;;;17.99;77.03;100231.63;2117388;27;47442;-65
2022/10/15 02:32:52;;;;;;;;;5.50;5.00;;;;;18.01;76.98;100235.09;2122380;27;46896;-65
2022/10/15 02:33:57;;;;;;;;;5.50;5.50;;;;;18.01;77.05;100227.91;2121718;27;46864;-64
2022/10/15 02:34:59;;;;;;;;;5.25;4.75;;;;;18.03;76.85;100222.44;2121085;27;46694;-64
2022/10/15 02:36:00;;;;;;;;;7.00;7.00;;;;;18.03;77.20;100228.66;2121054;27;46092;-65
2022/10/15 02:37:03;;;;;;;;;5.00;5.00;;;;;18.05;77.01;100224.09;2120542;27;46789;-64
2022/10/15 02:38:08;;;;;;;;;6.75;6.75;;;;;18.08;76.96;100217.66;2118609;27;46410;-65
2022/10/15 02:39:16;;;;;;;;;5.25;5.25;;;;;18.07;77.08;100219.47;2119688;27;46875;-65
2022/10/15 02:40:20;;;;;;;;;4.50;4.50;;;;;18.09;76.95;100214.03;2120347;27;45613;-65
2022/10/15 02:41:21;;;;;;;;;4.50;4.50;;;;;18.09;76.94;100222.06;2116543;27;46717;-64
2022/10/15 02:42:22;;;;;;;;;5.50;5.50;;;;;18.10;77.23;100213.91;2121808;27;47035;-65
2022/10/15 02:43:22;;;;;;;;;5.67;5.67;;;;;18.11;76.90;100212.09;2117153;27;46604;-64
2022/10/15 02:44:23;;;;;;;;;5.00;5.00;;;;;18.12;76.83;100205.78;2118705;27;47009;-65
2022/10/15 02:45:23;;;;;;;;;6.00;6.00;;;;;18.12;76.65;100201.25;2119487;27;46673;-64
2022/10/15 02:46:23;;;;;;;;;8.67;6.00;;;;;18.12;76.98;100201.25;2121949;27;46471;-64
2022/10/15 02:47:24;;;;;;;;;5.00;5.00;;;;;18.12;76.92;100195.88;2118895;27;46603;-65
2022/10/15 02:48:24;;;;;;;;;6.00;6.00;;;;;18.12;76.68;100195.88;2121387;27;45743;-65
2022/10/15 02:49:25;;;;;;;;;6.50;6.50;;;;;18.13;76.96;100186.00;2120224;27;45477;-64
2022/10/15 02:50:25;;;;;;;;;9.00;8.00;;;;;18.13;76.58;100186.88;2121665;27;46606;-64
2022/10/15 02:51:25;;;;;;;;;9.00;9.00;;;;;18.13;76.83;100188.69;2119528;27;46412;-66
2022/10/15 02:52:26;;;;;;;;;5.33;5.33;;;;;18.13;77.07;100186.00;2118939;27;46082;-65
2022/10/15 02:53:26;;;;;;;;;7.00;7.00;;;;;18.13;77.11;100180.63;2116558;27;45945;-65
2022/10/15 02:54:26;;;;;;;;;7.33;7.33;;;;;18.14;76.89;100182.38;2121590;27;46217;-65
2022/10/15 02:55:26;;;;;;;;;5.33;5.33;;;;;18.15;76.66;100187.63;2119502;27;45917;-66
2022/10/15 02:56:27;;;;;;;;;8.67;7.33;;;;;18.14;77.09;100191.28;2114100;27;45940;-64
2022/10/15 02:57:27;;;;;;;;;4.67;4.67;;;;;18.13;76.95;100181.50;2117558;27;45007;-65
2022/10/15 02:58:29;;;;;;;;;6.00;6.00;;;;;18.12;76.92;100185.16;2121974;27;46859;-65
2022/10/15 02:59:30;;;;;;;;;4.75;4.75;;;;;18.12;76.48;100179.78;2117776;27;46373;-64
2022/10/15 03:00:30;;;;;;;;;4.33;4.33;;;;;18.12;76.91;100181.59;2121732;27;46392;-65
2022/10/15 03:01:31;;;;;;;;;5.00;5.00;;;;;18.10;76.79;100176.31;2118515;27;46784;-63
2022/10/15 03:02:32;;;;;;;;;5.00;5.00;;;;;18.10;77.09;100178.16;2119957;27;47080;-64
2022/10/15 03:03:32;;;;;;;;;4.00;4.00;;;;;18.10;77.39;100179.00;2117493;27;46582;-64
2022/10/15 03:04:33;;;;;;;;;5.00;4.67;;;;;18.10;77.35;100178.16;2122483;27;45643;-63
2022/10/15 03:05:34;;;;;;;;;4.33;4.33;;;;;18.10;77.14;100176.31;2119999;27;46756;-64
2022/10/15 03:06:34;;;;;;;;;4.00;4.00;;;;;18.11;76.92;100182.56;2114713;27;47076;-65
2022/10/15 03:07:34;;;;;;;;;5.33;5.33;;;;;18.11;77.06;100171.81;2117316;27;46683;-65
2022/10/15 03:08:35;;;;;;;;;6.00;5.00;;;;;18.12;77.00;100178.91;2122209;27;46807;-65
2022/10/15 03:09:35;;;;;;;;;4.67;4.67;;;;;18.11;76.97;100177.19;2120409;27;46406;-64
2022/10/15 03:10:36;;;;;;;;;4.00;4.00;;;;;18.12;77.14;100173.53;2114672;27;46620;-64
2022/10/15 03:11:37;;;;;;;;;4.00;4.00;;;;;18.13;77.29;100172.59;2120404;27;46664;-65
2022/10/15 03:12:37;;;;;;;;;3.50;3.50;;;;;18.13;77.02;100176.13;2118211;27;46613;-64
2022/10/15 03:13:38;;;;;;;;;4.00;4.00;;;;;18.14;77.30;100172.47;2119481;27;46845;-64
2022/10/15 03:14:39;;;;;;;;;4.00;4.00;;;;;18.15;77.26;100167.97;2118296;27;46393;-65
2022/10/15 03:15:39;;;;;;;;;3.00;3.00;;;;;18.16;77.18;100165.19;2116545;27;46134;-64
2022/10/15 03:16:39;;;;;;;;;2.33;2.33;;;;;18.17;77.05;100160.72;2115902;27;45710;-64
2022/10/15 03:17:40;;;;;;;;;4.00;4.00;;;;;18.18;77.00;100165.13;2118840;27;46714;-64
2022/10/15 03:18:40;;;;;;;;;3.33;3.33;;;;;18.19;76.97;100158.78;2122066;27;46474;-64
2022/10/15 03:19:40;;;;;;;;;4.00;4.00;;;;;18.19;77.15;100165.03;2120399;27;46544;-65
2022/10/15 03:20:41;;;;;;;;;3.00;3.00;;;;;18.19;76.93;100162.34;2113088;27;45583;-64
2022/10/15 03:21:41;;;;;;;;;2.00;2.00;;;;;18.17;77.08;100158.91;2110542;27;46722;-64
2022/10/15 03:22:42;;;;;;;;;1.00;1.00;;;;;18.18;77.22;100162.44;2095280;28;46749;-64
2022/10/15 03:23:42;;;;;;;;;4.00;4.00;;;;;18.18;77.10;100149.00;2093744;28;45137;-64
2022/10/15 03:24:42;;;;;;;;;2.67;1.67;;;;;18.17;77.17;100156.22;2112651;27;46351;-63
2022/10/15 03:25:42;;;;;;;;;1.33;1.33;;;;;18.16;77.26;100146.41;2119500;27;45065;-64
2022/10/15 03:26:43;;;;;;;;;2.33;1.00;;;;;18.17;76.98;100150.84;2120645;27;46642;-64
2022/10/15 03:27:43;;;;;;;;;3.00;3.00;;;;;18.15;77.27;100141.97;2119613;27;46537;-65
2022/10/15 03:28:43;;;;;;;;;4.00;4.00;;;;;18.17;77.50;100140.09;2121646;27;46288;-65
2022/10/15 03:29:44;;;;;;;;;2.00;2.00;;;;;18.17;77.09;100142.78;2118959;27;46182;-64
2022/10/15 03:30:45;;;;;;;;;1.00;1.00;;;;;18.17;77.20;100142.78;2119564;27;46417;-64
2022/10/15 03:31:45;;;;;;;;;2.00;2.00;;;;;18.16;77.40;100132.97;2115568;27;46472;-64
2022/10/15 03:32:46;;;;;;;;;2.00;2.00;;;;;18.15;77.42;100133.94;2116038;27;46236;-64
2022/10/15 03:33:46;;;;;;;;;2.50;2.50;;;;;18.15;77.33;100138.44;2118215;27;46603;-66
2022/10/15 03:34:47;;;;;;;;;2.33;2.33;;;;;18.14;77.44;100129.50;2113198;27;45789;-64
2022/10/15 03:35:47;;;;;;;;;0.33;0.33;;;;;18.15;77.47;100135.75;2118372;27;45690;-64
2022/10/15 03:36:47;;;;;;;;;2.67;1.67;;;;;18.14;77.35;100124.16;2121990;27;44900;-65
2022/10/15 03:37:48;;;;;;;;;1.00;1.00;;;;;18.14;77.36;100126.84;2111051;27;45910;-65
2022/10/15 03:38:48;;;;;;;;;2.00;2.00;;;;;18.14;77.66;100131.34;2109531;27;48009;-64
2022/10/15 03:39:48;;;;;;;;;2.00;1.67;;;;;18.14;77.62;100128.66;2110050;27;46592;-64
2022/10/15 03:40:49;;;;;;;;;2.33;2.33;;;;;18.14;77.50;100128.66;2112266;27;46617;-64
2022/10/15 03:41:52;;;;;;;;;2.00;2.00;;;;;18.13;77.61;100125.09;2120028;27;46343;-64
2022/10/15 03:42:52;;;;;;;;;1.75;1.75;;;;;18.14;77.55;100118.78;2117443;27;46320;-66
2022/10/15 03:43:53;;;;;;;;;3.00;2.00;;;;;18.13;77.70;100119.75;2119332;27;46102;-64
2022/10/15 03:44:53;;;;;;;;;2.00;2.00;;;;;18.14;77.74;100124.16;2120553;27;46307;-64
2022/10/15 03:45:53;;;;;;;;;3.00;3.00;;;;;18.15;77.52;100115.13;2119542;27;46849;-64
2022/10/15 03:46:54;;;;;;;;;2.00;1.00;;;;;18.16;77.73;100121.34;2120240;27;46964;-66
2022/10/15 03:47:54;;;;;;;;;1.00;1.00;;;;;18.14;77.83;100113.41;2119012;27;46534;-65
2022/10/15 03:48:54;;;;;;;;;3.67;1.67;;;;;18.14;78.15;100110.72;2120607;27;46668;-64
2022/10/15 03:49:55;;;;;;;;;0.67;0.00;;;;;18.13;77.96;100109.00;2121682;27;45328;-64
2022/10/15 03:50:56;;;;;;;;;1.00;1.00;;;;;18.12;77.97;100104.59;2119798;27;46234;-65
2022/10/15 03:51:56;;;;;;;;;0.00;0.00;;;;;18.10;78.05;100103.81;2120562;27;47136;-64
2022/10/15 03:52:57;;;;;;;;;1.00;1.00;;;;;18.10;78.38;100111.03;2120103;27;46331;-65
2022/10/15 03:53:57;;;;;;;;;1.00;1.00;;;;;18.09;78.04;100110.16;2120504;27;45994;-65
2022/10/15 03:54:58;;;;;;;;;1.00;1.00;;;;;18.09;77.92;100111.97;2112829;27;46473;-66
2022/10/15 03:56:03;;;;;;;;;0.00;0.00;;;;;18.10;77.98;100109.19;2118724;27;46393;-65
2022/10/15 03:57:03;;;;;;;;;2.00;2.00;;;;;18.11;78.13;100100.19;2120119;27;46349;-63
2022/10/15 03:58:04;;;;;;;;;1.67;1.67;;;;;18.12;78.29;100104.59;2119696;27;46487;-64
2022/10/15 03:59:04;;;;;;;;;0.00;0.00;;;;;18.13;78.11;100102.75;2117696;27;46193;-65
2022/10/15 04:00:06;;;;;;;;;2.33;1.00;;;;;18.14;77.88;100099.13;2121465;27;46469;-65
2022/10/15 04:01:12;;;;;;;;;2.00;2.00;;;;;18.14;78.43;100096.44;2117939;27;46734;-64
2022/10/15 04:02:12;;;;;;;;;0.50;0.50;;;;;18.13;78.08;100098.25;2112686;27;46606;-65
2022/10/15 04:03:13;;;;;;;;;0.00;0.00;;;;;18.13;78.11;100098.25;2106905;27;46399;-63
2022/10/15 04:04:13;;;;;;;;;0.00;0.00;;;;;18.13;78.13;100090.19;2121498;27;46554;-63
2022/10/15 04:05:13;;;;;;;;;1.00;0.00;;;;;18.14;78.04;100097.28;2101002;28;46424;-65
2022/10/15 04:06:14;;;;;;;;;0.00;0.00;;;;;18.15;78.24;100095.47;2102528;28;46308;-65
2022/10/15 04:07:14;;;;;;;;;1.00;1.00;;;;;18.14;78.33;100091.06;2117992;27;46399;-66
2022/10/15 04:08:14;;;;;;;;;0.00;0.00;;;;;18.13;78.05;100084.81;2120660;27;46269;-65
2022/10/15 04:09:15;;;;;;;;;1.00;0.00;;;;;18.14;78.13;100085.69;2120035;27;46232;-65
2022/10/15 04:10:15;;;;;;;;;0.00;0.00;;;;;18.12;78.60;100077.72;2121394;27;46602;-64
2022/10/15 04:11:15;;;;;;;;;1.00;0.00;;;;;18.12;78.27;100096.53;2110420;27;46147;-73
2022/10/15 04:12:16;;;;;;;;;0.00;0.00;;;;;18.11;78.40;100077.84;2112742;27;46393;-64
2022/10/15 04:13:17;;;;;;;;;0.33;0.00;;;;;18.11;78.44;100076.00;2118624;27;46442;-65
2022/10/15 04:14:19;;;;;;;;;0.00;0.00;;;;;18.12;78.28;100077.72;2119607;27;46243;-65
2022/10/15 04:15:19;;;;;;;;;0.00;0.00;;;;;18.12;78.55;100082.25;2115975;27;46771;-64
2022/10/15 04:16:19;;;;;;;;;0.00;0.00;;;;;18.10;78.70;100076.97;2113915;27;46928;-65
2022/10/15 04:17:20;;;;;;;;;0.00;0.00;;;;;18.09;78.39;100072.56;2118138;27;46610;-65
2022/10/15 04:18:21;;;;;;;;;0.00;0.00;;;;;18.11;78.52;100075.16;2114447;27;45509;-66
2022/10/15 04:19:21;;;;;;;;;2.00;1.00;;;;;18.11;78.73;100080.53;2117038;27;45857;-66
2022/10/15 04:20:21;;;;;;;;;0.00;0.00;;;;;18.11;78.78;100076.00;2121887;27;45865;-72
2022/10/15 04:21:22;;;;;;;;;0.00;0.00;;;;;18.11;78.94;100075.16;2119327;27;45169;-65
2022/10/15 04:22:22;;;;;;;;;1.00;1.00;;;;;18.12;78.18;100074.19;2119480;27;46100;-65
2022/10/15 04:23:22;;;;;;;;;0.00;0.00;;;;;18.12;78.42;100071.50;2113122;27;46597;-64
2022/10/15 04:24:23;;;;;;;;;0.00;0.00;;;;;18.13;78.63;100074.09;2112950;27;46844;-64
2022/10/15 04:25:23;;;;;;;;;0.00;0.00;;;;;18.12;78.73;100072.38;2121112;27;46556;-65
2022/10/15 04:26:23;;;;;;;;;0.67;0.00;;;;;18.12;78.51;100068.81;2119209;27;46692;-63
2022/10/15 04:27:24;;;;;;;;;0.00;0.00;;;;;18.12;78.84;100075.03;2116574;27;47053;-64
2022/10/15 04:28:24;;;;;;;;;0.00;0.00;;;;;18.11;78.58;100076.00;2116323;27;46612;-65
2022/10/15 04:29:25;;;;;;;;;0.00;0.00;;;;;18.12;78.84;100071.50;2120209;27;46246;-64
2022/10/15 04:30:25;;;;;;;;;0.00;0.00;;;;;18.12;78.76;100067.00;2116403;27;45484;-64
2022/10/15 04:31:25;;;;;;;;;0.00;0.00;;;;;18.11;78.74;100067.97;2121353;27;46810;-66
2022/10/15 04:32:25;;;;;;;;;0.00;0.00;;;;;18.12;78.93;100067.00;2115884;27;46269;-65
2022/10/15 04:33:27;;;;;;;;;0.00;0.00;;;;;18.12;79.14;100067.00;2113833;27;46526;-64
2022/10/15 04:34:27;;;;;;;;;0.25;0.00;;;;;18.11;79.10;100067.97;2121194;27;46321;-65
2022/10/15 04:35:28;;;;;;;;;0.00;0.00;;;;;18.11;79.17;100076.00;2121858;27;46293;-64
2022/10/15 04:36:28;;;;;;;;;0.00;0.00;;;;;18.11;79.43;100067.97;2121489;27;45602;-64
2022/10/15 04:37:32;;;;;;;;;0.00;0.00;;;;;18.12;79.35;100071.50;2121508;27;46319;-64
2022/10/15 04:38:33;;;;;;;;;0.00;0.00;;;;;18.11;79.22;100072.47;2121208;27;47341;-65
2022/10/15 04:39:34;;;;;;;;;0.00;0.00;;;;;18.12;79.04;100068.81;2121323;27;46975;-65
2022/10/15 04:40:34;;;;;;;;;0.00;0.00;;;;;18.13;79.13;100065.16;2120586;27;46403;-66
2022/10/15 04:41:34;;;;;;;;;0.67;0.00;;;;;18.12;79.04;100071.50;2112874;27;47604;-63
2022/10/15 04:42:35;;;;;;;;;0.00;0.00;;;;;18.12;79.18;100061.63;2114484;27;46435;-65
2022/10/15 04:43:36;;;;;;;;;0.00;0.00;;;;;18.14;79.12;100072.25;2118108;27;45224;-67
2022/10/15 04:44:36;;;;;;;;;0.00;0.00;;;;;18.12;79.36;100064.31;2121124;27;45661;-66
2022/10/15 04:45:36;;;;;;;;;0.00;0.00;;;;;18.13;79.52;100065.16;2121519;27;46990;-65
2022/10/15 04:46:37;;;;;;;;;0.00;0.00;;;;;18.14;78.99;100077.63;2116479;27;46658;-65
2022/10/15 04:47:37;;;;;;;;;0.00;0.00;;;;;18.15;79.15;100071.31;2121078;27;45324;-65
2022/10/15 04:48:38;;;;;;;;;0.00;0.00;;;;;18.14;79.24;100067.75;2116043;27;45877;-65
2022/10/15 04:49:38;;;;;;;;;0.00;0.00;;;;;18.14;79.25;100069.56;2120735;27;46822;-65
2022/10/15 04:50:38;;;;;;;;;0.00;0.00;;;;;18.14;79.16;100072.25;2119795;27;46643;-66
2022/10/15 04:51:39;;;;;;;;;0.67;0.67;;;;;18.14;79.15;100074.94;2122987;27;46280;-64
2022/10/15 04:52:39;;;;;;;;;0.00;0.00;;;;;18.14;79.48;100070.44;2120225;27;46664;-65
2022/10/15 04:53:39;;;;;;;;;0.33;0.33;;;;;18.14;79.45;100074.94;2120776;27;46302;-65
2022/10/15 04:54:40;;;;;;;;;0.00;0.00;;;;;18.15;79.26;100071.31;2114573;27;46548;-66
2022/10/15 04:55:40;;;;;;;;;2.00;0.00;;;;;18.15;79.14;100072.16;2120352;27;46190;-65